Time;durP1;ratioP1;P1;durP2;ratioP2;P2;SDS_P1;SDS_P2;PMS_P1;PMS_P2;Temp;Humidity;BMP_temperature;BMP_pressure;BME280_temperature;BME280_humidity;BME280_pressure;Samples;Min_cycle;Max_cycle;Signal;HPM_P1;HPM_P2
2022/04/02 00:03:00;;;;;;;19.33;10.93;;;;;;;0.47;100.00;99493.66;20866789;28;20056;-67
2022/04/02 00:13:02;;;;;;;18.55;10.75;;;;;;;0.35;100.00;99490.97;20866783;28;20462;-66
2022/04/02 00:33:23;;;;;;;21.45;11.90;;;;;;;0.35;100.00;99496.13;20869660;28;20057;-72
2022/04/02 00:43:37;;;;;;;18.75;12.25;;;;;;;0.26;100.00;99491.72;20868709;28;20095;-66
2022/04/02 00:53:42;;;;;;;19.95;12.05;;;;;;;0.37;100.00;99484.13;20873883;28;20108;-68
2022/04/02 01:03:44;;;;;;;21.38;13.27;;;;;;;0.19;100.00;99480.50;20867818;28;20049;-70
2022/04/02 01:13:45;;;;;;;18.95;12.93;;;;;;;0.28;100.00;99502.91;20864895;28;20045;-69
2022/04/02 01:23:47;;;;;;;20.98;12.68;;;;;;;0.20;100.00;99501.97;20862393;28;20613;-67
2022/04/02 01:33:49;;;;;;;20.00;12.90;;;;;;;0.24;100.00;99502.03;20857697;28;20135;-70
2022/04/02 01:43:51;;;;;;;20.55;13.45;;;;;;;0.25;100.00;99524.34;20861588;28;20094;-67
2022/04/02 01:53:52;;;;;;;21.65;13.38;;;;;;;0.18;100.00;99525.09;20860752;28;20060;-69
2022/04/02 02:26:37;;;;;;;17.67;11.65;;;;;;;0.19;100.00;99550.00;20861840;28;20041;-66
2022/04/02 02:36:39;;;;;;;15.90;10.30;;;;;;;0.16;100.00;99561.97;20859867;28;20084;-67
2022/04/02 02:46:40;;;;;;;16.95;10.98;;;;;;;0.14;100.00;99559.34;20861771;28;20045;-71
2022/04/02 02:56:42;;;;;;;14.25;10.02;;;;;;;0.12;100.00;99550.75;20873995;28;20059;-67
2022/04/02 03:06:44;;;;;;;17.63;11.02;;;;;;;0.09;100.00;99566.16;20871833;28;20049;-67
2022/04/02 03:16:46;;;;;;;16.73;9.45;;;;;;;0.13;100.00;99573.09;20870568;28;20069;-68
2022/04/02 03:26:47;;;;;;;16.23;9.80;;;;;;;0.11;100.00;99574.78;20871399;28;20049;-72
2022/04/02 03:36:49;;;;;;;19.00;10.00;;;;;;;0.06;100.00;99580.72;20871640;28;20045;-67
2022/04/02 03:47:08;;;;;;;17.20;9.88;;;;;;;0.12;100.00;99581.66;20871051;28;20049;-68
2022/04/02 03:57:12;;;;;;;17.52;9.90;;;;;;;0.01;100.00;99587.53;20869446;28;20045;-68
2022/04/02 04:07:14;;;;;;;20.73;10.17;;;;;;;-0.08;100.00;99599.41;20863467;28;20091;-67
2022/04/02 04:17:16;;;;;;;17.02;9.57;;;;;;;-0.12;100.00;99604.47;20867192;28;20505;-67
2022/04/02 04:27:18;;;;;;;15.20;9.95;;;;;;;-0.14;100.00;99617.34;20864567;28;20491;-67
2022/04/02 04:37:20;;;;;;;16.55;10.32;;;;;;;-0.13;100.00;99620.78;20864417;28;20056;-67
2022/04/02 04:47:21;;;;;;;15.80;9.82;;;;;;;-0.10;100.00;99641.38;21038252;22;20452;-72
2022/04/02 04:57:23;;;;;;;17.55;9.95;;;;;;;-0.29;100.00;99646.28;20946870;28;20135;-72
2022/04/02 05:07:25;;;;;;;20.20;10.88;;;;;;;-0.32;100.00;99666.78;20944362;28;20045;-70
2022/04/02 05:17:26;;;;;;;17.90;10.68;;;;;;;-0.23;100.00;99667.78;20944667;28;20102;-69
2022/04/02 05:27:28;;;;;;;17.73;10.35;;;;;;;-0.25;100.00;99683.16;20946010;28;20050;-69
2022/04/02 05:37:30;;;;;;;17.58;9.88;;;;;;;-0.33;100.00;99695.94;20944769;28;20048;-69
2022/04/02 05:47:51;;;;;;;16.73;9.30;;;;;;;-0.25;100.00;99724.31;20943786;28;20481;-68
2022/04/02 05:57:53;;;;;;;14.77;9.13;;;;;;;-0.18;100.00;99726.19;20942234;28;20074;-69
2022/04/02 06:07:55;;;;;;;16.83;10.13;;;;;;;-0.19;100.00;99739.88;20942804;28;20098;-68
2022/04/02 06:17:56;;;;;;;15.25;9.63;;;;;;;-0.22;100.00;99750.13;20937977;28;20555;-69
2022/04/02 06:27:58;;;;;;;21.52;9.13;;;;;;;-0.17;100.00;99763.91;20956329;28;20053;-69
2022/04/02 06:37:59;;;;;;;17.42;10.25;;;;;;;-0.21;100.00;99781.84;20956446;28;20057;-70
2022/04/02 06:48:02;;;;;;;19.80;10.30;;;;;;;-0.30;100.00;99797.97;20957254;28;20098;-70
2022/04/02 06:58:04;;;;;;;20.80;10.35;;;;;;;-0.18;100.00;99808.50;20950560;28;20077;-71
2022/04/02 07:08:06;;;;;;;16.15;10.60;;;;;;;-0.05;100.00;99830.16;20898215;28;20048;-70
2022/04/02 07:18:10;;;;;;;17.00;10.55;;;;;;;-0.12;100.00;99833.47;20880489;28;20049;-71
2022/04/02 07:28:11;;;;;;;17.00;10.87;;;;;;;-0.09;100.00;99844.69;20886965;28;20057;-71
2022/04/02 07:38:32;;;;;;;16.08;10.02;;;;;;;-0.09;100.00;99869.56;20874927;28;20047;-71
2022/04/02 07:48:39;;;;;;;17.45;10.38;;;;;;;0.10;100.00;99868.19;20931286;28;20411;-70
2022/04/02 07:58:45;;;;;;;16.92;10.50;;;;;;;-0.03;100.00;99892.81;20943252;28;20041;-71
2022/04/02 08:08:47;;;;;;;17.83;9.80;;;;;;;0.04;100.00;99902.38;20942092;28;20076;-68
2022/04/02 08:18:52;;;;;;;16.95;9.73;;;;;;;0.29;100.00;99914.03;20942911;28;20417;-68
2022/04/02 08:29:06;;;;;;;;;;;;;;;0.23;100.00;99935.34;20938507;28;20094;-67
2022/04/02 08:39:15;;;;;;;16.48;9.35;;;;;;;0.26;100.00;99931.97;20937977;28;20320;-68
2022/04/02 08:49:36;;;;;;;22.48;11.63;;;;;;;0.34;100.00;99945.00;20935074;28;20052;-67
2022/04/02 08:59:40;;;;;;;17.08;9.25;;;;;;;0.41;100.00;99970.00;20931918;28;20051;-67
2022/04/02 09:10:00;;;;;;;22.33;11.35;;;;;;;0.63;100.00;99986.72;20936592;28;20418;-67
2022/04/02 09:20:37;;;;;;;14.13;8.68;;;;;;;0.59;100.00;100001.25;20938051;28;20052;-65
2022/04/02 09:31:10;;;;;;;21.60;11.65;;;;;;;0.63;100.00;100008.19;20935996;28;20044;-64
2022/04/02 09:41:15;;;;;;;17.83;8.80;;;;;;;0.87;100.00;100017.19;20929862;28;20040;-64
2022/04/02 09:51:20;;;;;;;16.05;8.30;;;;;;;0.55;100.00;100019.19;20935167;28;20110;-64
2022/04/02 10:01:29;;;;;;;16.75;8.80;;;;;;;0.89;100.00;100026.69;20933041;28;20041;-65
2022/04/02 10:11:34;;;;;;;16.20;8.40;;;;;;;1.03;100.00;100032.06;20932878;28;20056;-65
2022/04/02 10:21:38;;;;;;;17.23;8.88;;;;;;;0.97;100.00;100034.56;20920249;28;20041;-65
2022/04/02 10:31:59;;;;;;;15.63;9.23;;;;;;;0.88;100.00;100040.41;20920885;28;20548;-65
2022/04/02 10:42:05;;;;;;;15.63;8.93;;;;;;;0.76;100.00;100048.78;20934346;28;20061;-64
2022/04/02 10:52:11;;;;;;;17.45;9.32;;;;;;;0.75;100.00;100066.78;20932324;28;20044;-67
2022/04/02 11:02:22;;;;;;;17.50;9.18;;;;;;;0.63;100.00;100084.63;20882964;28;20045;-64
2022/04/02 11:12:29;;;;;;;16.02;9.43;;;;;;;0.67;100.00;100074.41;20859190;28;20053;-65
2022/04/02 11:23:02;;;;;;;17.73;9.65;;;;;;;0.58;100.00;100089.69;20933596;28;20487;-65
2022/04/02 11:33:15;;;;;;;20.02;10.70;;;;;;;0.46;100.00;100099.72;20941543;28;20067;-65
2022/04/02 11:43:29;;;;;;;19.23;10.47;;;;;;;0.51;100.00;100111.00;20942628;28;20083;-66
2022/04/02 11:53:37;;;;;;;26.45;14.55;;;;;;;0.91;100.00;100132.38;20941603;28;20048;-66
2022/04/02 12:03:38;;;;;;;29.98;15.35;;;;;;;0.74;100.00;100132.94;20940085;28;20051;-67
2022/04/02 12:13:54;;;;;;;24.38;14.20;;;;;;;0.41;100.00;100145.13;20925511;28;20083;-67
2022/04/02 12:23:56;;;;;;;29.88;15.98;;;;;;;0.57;100.00;100146.31;20912551;28;20456;-67
2022/04/02 12:33:59;;;;;;;22.77;13.77;;;;;;;0.79;100.00;100150.19;20923238;28;20037;-67
2022/04/02 12:44:06;;;;;;;24.20;13.75;;;;;;;0.73;100.00;100167.28;20921544;28;20045;-66
2022/04/02 12:54:07;;;;;;;28.67;15.68;;;;;;;0.96;100.00;100182.34;20924490;28;20053;-66
2022/04/02 13:04:11;;;;;;;26.45;15.48;;;;;;;1.11;100.00;100187.78;20937897;28;20040;-67
2022/04/02 13:14:18;;;;;;;25.48;14.68;;;;;;;1.15;100.00;100194.72;20937667;28;20057;-66
2022/04/02 13:24:30;;;;;;;27.38;15.30;;;;;;;1.14;100.00;100197.25;20936963;28;20044;-66
2022/04/02 13:34:38;;;;;;;27.65;15.13;;;;;;;0.74;100.00;100212.81;20935583;28;20045;-66
2022/04/02 13:44:49;;;;;;;;;;;;;;;1.12;100.00;100220.44;20922981;28;20478;-66
2022/04/02 13:55:00;;;;;;;27.23;14.10;;;;;;;1.34;100.00;100218.25;20925331;28;19920;-66
2022/04/02 14:05:20;;;;;;;23.48;13.70;;;;;;;1.24;100.00;100232.69;20933933;28;20041;-66
2022/04/02 14:15:26;;;;;;;26.70;15.50;;;;;;;1.36;100.00;100235.53;20907899;28;20044;-66
2022/04/02 14:25:55;;;;;;;27.73;15.00;;;;;;;1.53;100.00;100240.97;20901232;28;20059;-65
2022/04/02 14:36:09;;;;;;;24.75;12.73;;;;;;;1.52;100.00;100246.97;20902675;28;20052;-66
2022/04/02 14:46:28;;;;;;;26.63;14.80;;;;;;;1.76;100.00;100242.25;20916818;28;20049;-68
2022/04/02 14:56:39;;;;;;;19.20;11.75;;;;;;;1.83;100.00;100237.22;20932311;28;20053;-67
2022/04/02 15:07:20;;;;;;;18.97;11.83;;;;;;;1.63;100.00;100249.75;20941011;28;20052;-67
2022/04/02 15:17:30;;;;;;;19.67;10.10;;;;;;;1.99;100.00;100249.53;20946610;28;20551;-66
2022/04/02 15:27:51;;;;;;;16.00;8.45;;;;;;;1.98;95.81;100269.31;20936600;28;20048;-65
2022/04/02 15:37:52;;;;;;;16.80;8.55;;;;;;;2.12;95.28;100276.44;20942685;28;20102;-65
2022/04/02 15:47:57;;;;;;;15.05;8.80;;;;;;;2.34;89.87;100287.97;20944041;28;20064;-66
2022/04/02 15:58:07;;;;;;;13.38;7.78;;;;;;;2.36;89.53;100292.31;20942795;28;20139;-65
2022/04/02 16:08:16;;;;;;;14.63;7.38;;;;;;;2.33;86.81;100302.59;20940990;28;20064;-66
2022/04/02 16:18:22;;;;;;;17.25;9.00;;;;;;;1.94;97.14;100318.28;20942300;28;20411;-64
2022/04/02 16:28:28;;;;;;;19.77;9.40;;;;;;;2.19;97.07;100314.41;20940007;28;20068;-65
2022/04/02 16:38:31;;;;;;;15.02;7.75;;;;;;;2.16;92.21;100330.75;20939277;28;20057;-66
2022/04/02 16:48:34;;;;;;;12.40;7.07;;;;;;;2.33;86.99;100348.22;20932373;28;20056;-66
2022/04/02 16:58:56;;;;;;;15.63;7.35;;;;;;;2.19;92.04;100371.25;20939284;28;20041;-68
2022/04/02 17:08:57;;;;;;;16.23;7.45;;;;;;;2.06;94.38;100380.50;20929248;28;20048;-66
2022/04/02 17:18:59;;;;;;;43.72;18.85;;;;;;;2.23;90.00;100384.25;20936614;28;20117;-67
2022/04/02 17:29:24;;;;;;;29.02;14.18;;;;;;;2.28;90.12;100397.22;20935318;28;20490;-67
2022/04/02 17:39:25;;;;;;;15.43;9.15;;;;;;;2.23;89.37;100415.25;20928161;28;20057;-66
2022/04/02 17:49:39;;;;;;;12.80;7.70;;;;;;;2.14;87.28;100422.81;20935436;28;20064;-66
2022/04/02 17:59:52;;;;;;;11.97;7.17;;;;;;;2.28;84.59;100439.44;20933560;28;20047;-66
2022/04/02 18:09:54;;;;;;;14.70;7.80;;;;;;;2.31;81.84;100442.09;20932604;28;20062;-67
2022/04/02 18:19:56;;;;;;;16.15;9.40;;;;;;;2.35;82.42;100465.38;20931969;28;20510;-67
2022/04/02 18:29:58;;;;;;;9.40;4.97;;;;;;;2.38;76.27;100478.38;20931336;28;20143;-65
2022/04/02 18:40:00;;;;;;;12.40;5.95;;;;;;;2.43;77.58;100489.66;20928786;28;20473;-68
2022/04/02 18:50:02;;;;;;;17.17;7.78;;;;;;;2.41;79.32;100507.72;20929872;28;20053;-66
2022/04/02 19:00:05;;;;;;;16.88;7.28;;;;;;;2.49;76.72;100518.19;20891634;28;20061;-65
2022/04/02 19:10:07;;;;;;;13.52;7.05;;;;;;;2.41;79.11;100524.94;20868624;28;20045;-64
2022/04/02 19:20:10;;;;;;;15.68;6.93;;;;;;;2.34;77.86;100543.75;20877750;28;20045;-64
2022/04/02 19:30:12;;;;;;;18.00;8.67;;;;;;;2.29;79.47;100552.25;20877471;28;20053;-64
2022/04/02 19:40:14;;;;;;;16.27;6.60;;;;;;;2.26;79.20;100564.28;20890990;28;20130;-64
2022/04/02 19:50:16;;;;;;;15.45;7.30;;;;;;;2.23;81.20;100571.94;20888408;28;20052;-64
2022/04/02 20:00:17;;;;;;;12.98;7.28;;;;;;;2.28;81.30;100572.91;20885065;28;20049;-65
2022/04/02 20:10:22;;;;;;;13.93;7.57;;;;;;;2.27;80.84;100582.38;20887394;28;20069;-65
2022/04/02 20:20:24;;;;;;;15.48;8.70;;;;;;;2.18;81.45;100589.94;20889151;28;20049;-64
2022/04/02 20:30:25;;;;;;;14.25;7.22;;;;;;;2.08;81.88;100598.31;20884331;28;20414;-66
2022/04/02 20:40:27;;;;;;;16.10;8.55;;;;;;;2.02;83.58;100598.19;20884486;28;20045;-68
2022/04/02 20:50:33;;;;;;;14.25;7.05;;;;;;;1.99;83.70;100614.47;20925293;28;20052;-68
2022/04/02 21:00:35;;;;;;;16.85;7.90;;;;;;;1.89;84.93;100619.41;20936232;28;20033;-67
2022/04/02 21:10:36;;;;;;;16.08;9.95;;;;;;;1.89;86.04;100635.78;20937493;28;20501;-68
2022/04/02 21:20:39;;;;;;;20.80;11.30;;;;;;;1.82;85.21;100627.84;20935543;28;20053;-68
2022/04/02 21:30:41;;;;;;;13.98;9.15;;;;;;;1.72;86.45;100634.50;20923827;28;20043;-67
2022/04/02 21:40:43;;;;;;;12.98;7.45;;;;;;;1.67;86.13;100638.69;20934669;28;20083;-68
2022/04/02 21:50:44;;;;;;;14.90;7.70;;;;;;;1.60;87.12;100660.91;20933020;28;20056;-68
2022/04/02 22:00:46;;;;;;;13.88;7.03;;;;;;;1.62;85.93;100669.53;20931916;28;20040;-68
2022/04/02 22:10:48;;;;;;;15.38;7.28;;;;;;;1.61;86.58;100672.09;20936937;28;20117;-68
2022/04/02 22:20:50;;;;;;;11.07;6.57;;;;;;;1.48;86.97;100673.47;20942010;28;20055;-68
2022/04/02 22:30:51;;;;;;;17.48;7.95;;;;;;;1.44;86.97;100672.56;20938091;28;20049;-68
2022/04/02 22:40:53;;;;;;;15.20;7.95;;;;;;;1.38;86.30;100677.53;20938349;28;20049;-68
2022/04/02 22:50:55;;;;;;;12.55;7.13;;;;;;;1.16;88.10;100690.72;20938332;28;20053;-68
2022/04/02 23:00:56;;;;;;;11.05;7.03;;;;;;;1.03;88.76;100694.66;20938157;28;20037;-67
2022/04/02 23:10:59;;;;;;;14.05;7.75;;;;;;;0.81;90.63;100702.63;20953452;28;20152;-68
2022/04/02 23:21:03;;;;;;;13.35;8.20;;;;;;;0.69;91.06;100698.88;20952371;28;20049;-67
2022/04/02 23:31:06;;;;;;;13.35;6.90;;;;;;;0.54;92.32;100693.28;20948882;28;20507;-67
2022/04/02 23:41:07;;;;;;;12.07;7.00;;;;;;;0.36;93.05;100708.16;20951560;28;20048;-68
2022/04/02 23:51:09;;;;;;;12.52;6.68;;;;;;;0.34;92.62;100709.84;20950976;28;20049;-68
